18:35
Airports
History
Links
Donate
Help keep this website running!
PayPal
Bitcoin
This page is community maintained. The information is intended for PC simulator navigation or reference.
Always use approved charts for navigation.
SDNQ
Fazenda Agua LimpaEdited 12-Sep-2012
Fazenda Agua Limpa (SDNQ)
Rio Branco, Acre, Brazil
4
Lat/Lng:9° 58' 13" S / 67° 29' 12" W
-9.970278 / -67.486667
Elevation:640'ft / 195mMSL
ID / ICAO:SDNQ
Runways:1
Longest:09-27
Grass 998m / 3,274ft
(Edited 2012-09-12) [ Sign in to Edit ]
Nearby Weather18:00 GMT 2018-02-21
Nearby weather at SBRB, Presidente Medici located 28.6 nautical miles from SDNQ
Altimeter: 29.85
Visibility: 6.2 statute miles
Wind: 5 knots (from 320°)
Temp: 31°c / 88°f
Humidity: 62.5%

METAR: SBRB 211800Z 32005KT 9999 SCT025 FEW030TCU 31/23 Q1011

(Powered by phpweather)
Runway 09 / 27
Dimensions:997.8 x 20.1m 3274' x 66'ft
Surface:Grass
Runway 09 [A]Runway 27 [B]
Heading:080°TH 260°TH
Lat:
Lng:
9° 58' 15.57"S
67° 29' 28.24"W
9° 58' 10.43"S
67° 28' 55.76"W
(Edited 2012-09-12) [ Sign in to Edit ]
User Notes and Comments
9° 58' 13" S / 67° 29' 12" W
Distance To
Airport ID:
Nearby Airports
(C) Presidente Medici 28.6 NM
SBRB ( WX ) WNW 284°
4 Fazenda Vista Alegre 40.8 NM
SWVE WNW 291°
4 Fazenda Campina 57.3 NM
SWKB N
4 Fazenda Tempero Seco 67.8 NM
SJQH NE 54°
(C) Novo Campo 79.4 NM
SWNK N
(C) Xapuri 83.1 NM
SWXU SW 234°
(C) Brasileia 111.4 NM
SWBS SW 229°
VFR Chart
Flight Planning at SkyVector.com